createdAt,value
2018-11-04T00:01:01.105Z,66.87
2018-11-04T00:03:29.702Z,70.87
2018-11-04T00:05:58.273Z,69.83
2018-11-04T00:08:26.793Z,70.00
2018-11-04T00:10:55.445Z,67.93
2018-11-04T00:13:24.085Z,72.93
2018-11-04T00:15:53.739Z,65.43
2018-11-04T00:18:22.293Z,68.83
2018-11-04T00:20:50.794Z,69.07
2018-11-04T00:23:21.395Z,66.50
2018-11-04T00:25:49.917Z,70.43
2018-11-04T00:28:19.490Z,65.70
2018-11-04T00:30:48.122Z,67.00
2018-11-04T00:33:16.564Z,69.07
2018-11-04T00:35:45.264Z,70.87
2018-11-04T00:38:13.869Z,67.83
2018-11-04T00:40:42.464Z,71.80
2018-11-04T00:43:10.909Z,71.57
2018-11-04T00:45:39.667Z,70.60
2018-11-04T00:48:08.200Z,67.70
2018-11-04T00:50:36.773Z,75.77
2018-11-04T00:53:05.453Z,73.83
2018-11-04T00:55:33.943Z,67.77
2018-11-04T00:58:03.594Z,71.23
2018-11-04T01:00:32.267Z,78.10
2018-11-04T01:03:00.784Z,73.20
2018-11-04T01:05:29.219Z,76.27
2018-11-04T01:07:57.813Z,73.07
2018-11-04T01:10:27.066Z,77.20
2018-11-04T01:12:55.621Z,79.13
2018-11-04T01:15:24.117Z,76.57
2018-11-04T01:17:52.609Z,80.97
2018-11-04T01:20:21.097Z,77.97
2018-11-04T01:22:49.777Z,85.43
2018-11-04T01:25:18.319Z,77.57
2018-11-04T01:27:47.306Z,76.93
2018-11-04T01:30:16.740Z,85.27
2018-11-04T01:32:45.542Z,76.50
2018-11-04T01:35:14.207Z,84.50
2018-11-04T01:37:42.767Z,83.03
2018-11-04T01:40:11.314Z,82.50
2018-11-04T01:42:40.317Z,86.73
2018-11-04T01:45:10.529Z,82.43
2018-11-04T01:47:39.492Z,84.53
2018-11-04T01:50:10.767Z,79.63
2018-11-04T01:52:40.314Z,82.70
2018-11-04T01:55:09.636Z,86.20
2018-11-04T01:57:38.296Z,83.53
2018-11-04T02:00:10.730Z,81.57
2018-11-04T02:02:39.426Z,82.10
2018-11-04T02:05:09.101Z,85.07
2018-11-04T02:07:39.587Z,77.83
2018-11-04T02:10:10.167Z,79.17
2018-11-04T02:12:38.777Z,80.30
2018-11-04T02:15:08.773Z,74.50
2018-11-04T02:17:38.102Z,85.97
2018-11-04T02:20:08.150Z,76.20
2018-11-04T02:22:36.719Z,80.33
2018-11-04T02:25:06.242Z,77.60
2018-11-04T02:27:34.969Z,76.43
2018-11-04T02:30:03.602Z,80.63
2018-11-04T02:32:32.080Z,77.10
2018-11-04T02:35:00.955Z,80.50
2018-11-04T02:37:29.532Z,76.63
2018-11-04T02:39:58.057Z,73.80
2018-11-04T02:42:26.670Z,71.43
2018-11-04T02:44:55.347Z,81.60
2018-11-04T02:47:25.189Z,74.87
2018-11-04T02:49:53.968Z,76.07
2018-11-04T02:52:22.616Z,73.30
2018-11-04T02:54:51.136Z,74.40
2018-11-04T02:57:19.873Z,74.57
2018-11-04T02:59:48.488Z,71.23
2018-11-04T03:02:17.249Z,69.47
2018-11-04T03:04:45.832Z,72.00
2018-11-04T03:07:15.488Z,71.10
2018-11-04T03:09:44.166Z,68.07
2018-11-04T03:12:12.685Z,67.70
2018-11-04T03:14:41.260Z,67.03
2018-11-04T03:17:09.991Z,67.13
2018-11-04T03:19:38.628Z,64.00
2018-11-04T03:22:07.513Z,69.60
2018-11-04T03:24:36.088Z,65.60
2018-11-04T03:27:04.706Z,64.03
2018-11-04T03:29:33.252Z,64.27
2018-11-04T03:32:02.084Z,65.13
2018-11-04T03:34:30.765Z,62.47
2018-11-04T03:36:59.251Z,63.80
2018-11-04T03:39:27.773Z,66.47
2018-11-04T03:41:56.345Z,61.77
2018-11-04T03:44:24.962Z,70.60
2018-11-04T03:46:54.932Z,66.90
2018-11-04T03:49:23.707Z,63.00
2018-11-04T03:51:52.217Z,68.17
2018-11-04T03:54:20.716Z,67.07
2018-11-04T03:56:49.360Z,71.60
2018-11-04T03:59:18.129Z,68.40
2018-11-04T04:01:46.891Z,71.47
2018-11-04T04:04:15.477Z,69.77
2018-11-04T04:06:44.083Z,67.27
2018-11-04T04:09:12.719Z,69.07
2018-11-04T04:11:41.233Z,67.13
2018-11-04T04:14:09.909Z,68.63
2018-11-04T04:16:38.411Z,69.17
2018-11-04T04:19:06.900Z,64.67
2018-11-04T04:21:35.445Z,69.90
2018-11-04T04:24:04.204Z,67.03
2018-11-04T04:26:32.680Z,66.27
2018-11-04T04:29:01.220Z,72.30
2018-11-04T04:31:29.721Z,67.77
2018-11-04T04:33:58.240Z,67.23
2018-11-04T04:36:27.413Z,68.67
2018-11-04T04:38:55.942Z,66.10
2018-11-04T04:41:24.669Z,60.43
2018-11-04T04:43:53.219Z,60.80
2018-11-04T04:46:21.798Z,59.50
2018-11-04T04:48:50.542Z,64.20
2018-11-04T04:51:19.129Z,64.63
2018-11-04T04:53:47.776Z,67.40
2018-11-04T04:56:16.250Z,53.97
2018-11-04T04:58:45.016Z,63.87
2018-11-04T05:01:13.651Z,59.27
2018-11-04T05:03:42.266Z,57.17
2018-11-04T05:06:10.782Z,49.10
2018-11-04T05:08:39.461Z,54.60
2018-11-04T05:11:08.263Z,51.02
2018-11-04T05:13:36.947Z,48.40
2018-11-04T05:16:05.889Z,53.20
2018-11-04T05:18:35.523Z,53.80
2018-11-04T05:21:04.200Z,49.63
2018-11-04T05:23:32.835Z,48.70
2018-11-04T05:26:01.473Z,52.70
2018-11-04T05:28:30.126Z,49.37
2018-11-04T05:30:58.874Z,46.80
2018-11-04T05:33:27.477Z,43.80
2018-11-04T05:35:56.789Z,49.23
2018-11-04T05:38:26.539Z,53.90
2018-11-04T05:40:55.165Z,43.90
2018-11-04T05:43:24.315Z,44.27
2018-11-04T05:45:52.932Z,49.27
2018-11-04T05:48:21.519Z,47.97
2018-11-04T05:50:50.478Z,46.50
2018-11-04T05:53:19.009Z,44.23
2018-11-04T05:55:47.601Z,44.93
2018-11-04T05:58:16.393Z,47.67
2018-11-04T06:00:44.833Z,48.17
2018-11-04T06:03:13.394Z,48.97
2018-11-04T06:05:41.963Z,47.97
2018-11-04T06:08:10.413Z,50.70
2018-11-04T06:10:38.911Z,49.00
2018-11-04T06:14:10.352Z,49.80
2018-11-04T06:16:41.135Z,48.33
2018-11-04T06:19:09.709Z,47.00
2018-11-04T06:21:38.370Z,51.70
2018-11-04T06:24:07.056Z,50.13
2018-11-04T06:26:35.638Z,44.83
2018-11-04T06:29:04.266Z,46.67
2018-11-04T06:31:32.818Z,49.13
2018-11-04T06:34:01.426Z,47.83
2018-11-04T06:36:29.961Z,46.30
2018-11-04T06:38:58.511Z,46.37
2018-11-04T06:41:28.124Z,45.47
2018-11-04T06:43:56.722Z,43.03
2018-11-04T06:46:25.328Z,42.70
2018-11-04T06:48:53.891Z,42.63
2018-11-04T06:51:22.610Z,40.70
2018-11-04T06:53:51.166Z,40.20
2018-11-04T06:56:19.603Z,42.67
2018-11-04T06:58:48.131Z,40.57
2018-11-04T07:01:17.057Z,41.50
2018-11-04T07:03:57.009Z,45.10
2018-11-04T07:06:25.538Z,39.23
2018-11-04T07:08:54.446Z,39.37
2018-11-04T07:11:23.078Z,39.43
2018-11-04T07:13:51.639Z,38.07
2018-11-04T07:16:20.994Z,38.33
2018-11-04T07:18:49.615Z,35.37
2018-11-04T07:21:18.346Z,37.20
2018-11-04T07:23:46.970Z,37.80
2018-11-04T07:26:15.473Z,35.03
2018-11-04T07:28:44.197Z,31.90
2018-11-04T07:31:12.861Z,34.50
2018-11-04T07:33:41.739Z,35.73
2018-11-04T07:36:10.233Z,30.73
2018-11-04T07:38:38.803Z,32.20
2018-11-04T07:41:07.283Z,30.07
2018-11-04T07:43:35.851Z,31.40
2018-11-04T07:46:04.640Z,34.30
2018-11-04T07:48:33.210Z,33.47
2018-11-04T07:51:01.921Z,29.77
2018-11-04T07:53:31.035Z,28.43
2018-11-04T07:55:59.591Z,32.37
2018-11-04T07:58:28.277Z,31.67
2018-11-04T08:00:57.058Z,32.00
2018-11-04T08:03:25.715Z,30.70
2018-11-04T08:05:54.384Z,31.10
2018-11-04T08:08:23.009Z,31.47
2018-11-04T08:10:51.741Z,30.17
2018-11-04T08:13:20.477Z,29.17
2018-11-04T08:15:49.077Z,31.03
2018-11-04T08:18:17.640Z,28.03
2018-11-04T08:20:46.399Z,28.40
2018-11-04T08:23:16.286Z,32.53
2018-11-04T08:25:45.082Z,33.00
2018-11-04T08:28:13.734Z,32.37
2018-11-04T08:30:42.910Z,31.50
2018-11-04T08:33:11.553Z,31.30
2018-11-04T08:35:40.293Z,29.77
2018-11-04T08:38:09.036Z,27.87
2018-11-04T08:40:37.693Z,31.40
2018-11-04T08:43:06.619Z,32.07
2018-11-04T08:45:35.281Z,29.13
2018-11-04T08:48:03.935Z,28.00
2018-11-04T08:50:32.734Z,29.30
2018-11-04T08:53:01.253Z,25.87
2018-11-04T08:55:30.626Z,30.20
2018-11-04T08:57:59.195Z,29.77
2018-11-04T09:00:27.883Z,29.17
2018-11-04T09:02:56.445Z,28.37
2018-11-04T09:05:24.945Z,28.43
2018-11-04T09:07:53.636Z,30.77
2018-11-04T09:10:22.256Z,29.93
2018-11-04T09:12:50.834Z,30.40
2018-11-04T09:15:19.429Z,36.27
2018-11-04T09:17:48.253Z,28.60
2018-11-04T09:20:17.709Z,31.13
2018-11-04T09:22:46.316Z,31.60
2018-11-04T09:25:15.466Z,33.27
2018-11-04T09:27:44.050Z,33.77
2018-11-04T09:30:15.122Z,32.10
2018-11-04T09:32:44.735Z,31.37
2018-11-04T09:35:13.581Z,28.27
2018-11-04T09:37:42.206Z,28.93
2018-11-04T09:40:12.313Z,34.17
2018-11-04T09:42:40.829Z,30.97
2018-11-04T09:45:10.132Z,33.07
2018-11-04T09:47:38.773Z,32.50
2018-11-04T09:50:09.449Z,34.27
2018-11-04T09:52:38.135Z,33.27
2018-11-04T09:55:07.856Z,30.03
2018-11-04T09:57:36.458Z,38.93
2018-11-04T10:00:07.482Z,36.47
2018-11-04T10:02:36.305Z,36.67
2018-11-04T10:05:06.059Z,36.27
2018-11-04T10:07:34.560Z,39.63
2018-11-04T10:10:03.247Z,38.07
2018-11-04T10:12:31.796Z,35.57
2018-11-04T10:15:00.372Z,34.43
2018-11-04T10:17:29.162Z,37.07
2018-11-04T10:19:57.955Z,35.40
2018-11-04T10:22:26.341Z,35.70
2018-11-04T10:24:54.881Z,37.07
2018-11-04T10:27:23.521Z,36.80
2018-11-04T10:29:52.405Z,36.30
2018-11-04T10:32:20.894Z,35.80
2018-11-04T10:34:49.656Z,33.83
2018-11-04T10:37:18.339Z,37.97
2018-11-04T10:39:47.395Z,36.47
2018-11-04T10:42:16.102Z,36.63
2018-11-04T10:44:44.808Z,38.83
2018-11-04T10:47:13.547Z,32.50
2018-11-04T10:49:42.073Z,34.57
2018-11-04T10:52:10.650Z,35.70
2018-11-04T10:54:39.204Z,35.17
2018-11-04T10:57:07.654Z,34.80
2018-11-04T10:59:36.797Z,35.30
2018-11-04T11:02:06.180Z,35.43
2018-11-04T11:04:34.775Z,38.43
2018-11-04T11:07:03.715Z,35.60
2018-11-04T11:09:32.335Z,32.43
2018-11-04T11:12:01.050Z,35.57
2018-11-04T11:14:29.939Z,31.50
2018-11-04T11:16:58.451Z,31.87
2018-11-04T11:19:26.957Z,35.17
2018-11-04T11:21:55.485Z,33.57
2018-11-04T11:26:57.941Z,30.63
2018-11-04T11:29:26.645Z,33.53
2018-11-04T11:31:55.124Z,31.53
2018-11-04T11:34:23.948Z,36.00
2018-11-04T11:36:52.443Z,33.30
2018-11-04T11:39:21.291Z,31.97
2018-11-04T11:41:49.886Z,30.97
2018-11-04T11:44:18.648Z,33.33
2018-11-04T11:46:47.308Z,32.10
2018-11-04T11:49:15.941Z,36.30
2018-11-04T11:51:45.353Z,33.20
2018-11-04T11:54:14.051Z,32.27
2018-11-04T11:56:42.809Z,32.90
2018-11-04T11:59:11.606Z,32.40
2018-11-04T12:01:41.510Z,32.90
2018-11-04T12:04:10.225Z,36.10
2018-11-04T12:06:38.930Z,34.17
2018-11-04T12:09:07.729Z,32.53
2018-11-04T12:11:36.348Z,35.00
2018-11-04T12:14:05.064Z,33.87
2018-11-04T12:16:33.641Z,32.50
2018-11-04T12:19:02.516Z,31.93
2018-11-04T12:21:31.136Z,34.27
2018-11-04T12:24:00.720Z,35.00
2018-11-04T12:26:29.315Z,36.67
2018-11-04T12:28:58.171Z,34.90
2018-11-04T12:31:26.767Z,34.43
2018-11-04T12:33:55.202Z,35.60
2018-11-04T12:36:23.710Z,35.73
2018-11-04T12:38:52.202Z,37.67
2018-11-04T12:41:20.858Z,38.43
2018-11-04T12:43:49.367Z,36.50
2018-11-04T12:46:17.841Z,37.60
2018-11-04T12:48:46.454Z,35.43
2018-11-04T12:51:15.022Z,37.20
2018-11-04T12:53:43.562Z,36.50
2018-11-04T12:56:12.080Z,36.83
2018-11-04T12:58:41.594Z,35.90
2018-11-04T13:01:10.312Z,36.10
2018-11-04T13:03:42.864Z,64.63
2018-11-04T13:06:12.718Z,57.43
2018-11-04T13:08:41.359Z,37.30
2018-11-04T13:11:09.962Z,40.80
2018-11-04T13:13:38.466Z,39.43
2018-11-04T13:16:07.321Z,36.13
2018-11-04T13:18:35.914Z,38.40
2018-11-04T13:21:04.924Z,37.47
2018-11-04T13:23:33.436Z,39.03
2018-11-04T13:26:02.200Z,37.50
2018-11-04T13:28:33.593Z,36.43
2018-11-04T13:31:02.266Z,38.43
2018-11-04T13:33:30.774Z,37.47
2018-11-04T13:35:59.547Z,40.17
2018-11-04T13:38:28.039Z,38.73
2018-11-04T13:40:56.541Z,34.97
2018-11-04T13:43:25.152Z,39.07
2018-11-04T13:45:53.795Z,38.97
2018-11-04T13:48:22.758Z,40.90
2018-11-04T13:50:51.571Z,37.10
2018-11-04T13:53:20.183Z,39.17
2018-11-04T13:55:48.845Z,40.60
2018-11-04T13:58:18.018Z,40.83
2018-11-04T14:00:46.746Z,40.03
2018-11-04T14:03:15.288Z,42.10
2018-11-04T14:05:44.702Z,42.13
2018-11-04T14:08:14.405Z,46.53
2018-11-04T14:10:43.444Z,41.17
2018-11-04T14:13:12.153Z,43.50
2018-11-04T14:15:40.913Z,44.37
2018-11-04T14:18:10.537Z,42.80
2018-11-04T14:20:40.215Z,42.37
2018-11-04T14:23:08.783Z,46.50
2018-11-04T14:25:38.484Z,45.77
2018-11-04T14:28:07.171Z,48.00
2018-11-04T14:30:36.900Z,47.73
2018-11-04T14:33:06.483Z,46.43
2018-11-04T14:35:36.429Z,49.60
2018-11-04T14:38:05.930Z,46.23
2018-11-04T14:40:35.395Z,48.10
2018-11-04T14:43:04.847Z,49.07
2018-11-04T14:45:33.772Z,51.63
2018-11-04T14:48:05.103Z,47.43
2018-11-04T14:50:34.441Z,50.23
2018-11-04T14:53:03.639Z,48.20
2018-11-04T14:55:32.585Z,48.50
2018-11-04T14:58:03.981Z,50.87
2018-11-04T15:00:36.539Z,48.23
2018-11-04T15:03:06.856Z,51.43
2018-11-04T15:05:35.480Z,48.80
2018-11-04T15:08:04.373Z,45.80
2018-11-04T15:10:33.013Z,44.23
2018-11-04T15:13:02.607Z,48.70
2018-11-04T15:15:32.162Z,49.10
2018-11-04T15:18:00.724Z,51.70
2018-11-04T15:20:29.339Z,49.13
2018-11-04T15:22:57.790Z,47.60
2018-11-04T15:25:26.336Z,50.00
2018-11-04T15:27:56.006Z,46.50
2018-11-04T15:30:26.514Z,47.10
2018-11-04T15:32:55.042Z,47.93
2018-11-04T15:35:24.266Z,45.07
2018-11-04T15:37:52.988Z,47.53
2018-11-04T15:40:22.575Z,48.10
2018-11-04T15:42:51.075Z,42.83
2018-11-04T15:45:19.764Z,44.50
2018-11-04T15:47:48.342Z,48.23
2018-11-04T15:50:18.466Z,45.73
2018-11-04T15:52:47.394Z,47.90
2018-11-04T15:55:16.681Z,44.23
2018-11-04T15:57:45.326Z,44.77
2018-11-04T16:01:43.438Z,43.37
2018-11-04T16:04:14.318Z,40.97
2018-11-04T16:06:45.368Z,42.53
2018-11-04T16:09:14.407Z,43.40
2018-11-04T16:11:46.294Z,43.87
2018-11-04T16:14:14.820Z,42.23
2018-11-04T16:16:43.490Z,43.80
2018-11-04T16:19:12.353Z,45.37
2018-11-04T16:21:40.893Z,47.90
2018-11-04T16:24:09.534Z,42.67
2018-11-04T16:26:38.232Z,41.77
2018-11-04T16:29:07.184Z,45.57
2018-11-04T16:31:35.824Z,45.00
2018-11-04T16:34:04.414Z,46.03
2018-11-04T16:36:36.004Z,44.40
2018-11-04T16:39:06.194Z,50.53
2018-11-04T16:41:36.031Z,43.83
2018-11-04T16:44:05.339Z,46.00
2018-11-04T16:46:34.057Z,44.30
2018-11-04T16:49:02.746Z,46.23
2018-11-04T16:51:31.410Z,47.13
2018-11-04T16:53:59.938Z,46.60
2018-11-04T16:56:29.010Z,47.50
2018-11-04T16:58:57.553Z,48.37
2018-11-04T17:01:26.116Z,48.10
2018-11-04T17:03:54.594Z,45.43
2018-11-04T17:06:23.405Z,49.77
2018-11-04T17:08:52.217Z,51.73
2018-11-04T17:11:20.966Z,52.70
2018-11-04T17:13:49.573Z,46.43
2018-11-04T17:16:18.350Z,48.77
2018-11-04T17:18:47.962Z,51.30
2018-11-04T17:21:16.564Z,47.83
2018-11-04T17:23:46.444Z,50.53
2018-11-04T17:26:15.104Z,48.80
2018-11-04T17:28:43.582Z,50.40
2018-11-04T17:31:12.182Z,46.80
2018-11-04T17:33:41.045Z,45.90
2018-11-04T17:36:10.254Z,47.87
2018-11-04T17:38:38.858Z,48.60
2018-11-04T17:41:07.350Z,50.07
2018-11-04T17:43:36.010Z,49.50
2018-11-04T17:46:05.590Z,47.60
2018-11-04T17:48:34.116Z,49.70
2018-11-04T17:51:02.817Z,50.47
2018-11-04T17:53:31.420Z,50.33
2018-11-04T17:56:00.106Z,49.97
2018-11-04T17:58:28.713Z,50.67
2018-11-04T18:00:57.361Z,54.33
2018-11-04T18:03:26.174Z,49.73
2018-11-04T18:05:54.967Z,44.07
2018-11-04T18:08:54.135Z,47.90
2018-11-04T18:11:22.602Z,50.40
2018-11-04T18:13:51.208Z,47.43
2018-11-04T18:16:19.603Z,47.63
2018-11-04T18:18:48.332Z,47.30
2018-11-04T18:21:16.920Z,50.07
2018-11-04T18:23:45.574Z,47.87
2018-11-04T18:26:14.612Z,50.03
2018-11-04T18:28:43.050Z,48.13
2018-11-04T18:31:11.807Z,46.53
2018-11-04T18:33:41.609Z,49.33
2018-11-04T18:36:10.271Z,50.87
2018-11-04T18:38:38.913Z,48.37
2018-11-04T18:41:07.514Z,49.33
2018-11-04T18:43:36.182Z,48.87
2018-11-04T18:46:04.851Z,48.70
2018-11-04T18:48:33.483Z,49.00
2018-11-04T18:51:02.230Z,45.73
2018-11-04T18:53:30.910Z,46.33
2018-11-04T18:55:59.532Z,44.90
2018-11-04T18:58:28.414Z,44.83
2018-11-04T19:00:57.013Z,45.43
2018-11-04T19:03:25.606Z,44.23
2018-11-04T19:05:54.306Z,46.00
2018-11-04T19:08:23.057Z,46.23
2018-11-04T19:10:51.842Z,45.87
2018-11-04T19:13:21.533Z,45.23
2018-11-04T19:15:50.330Z,44.10
2018-11-04T19:18:20.445Z,47.90
2018-11-04T19:20:49.371Z,46.50
2018-11-04T19:23:17.960Z,46.37
2018-11-04T19:25:46.983Z,46.33
2018-11-04T19:28:15.810Z,47.57
2018-11-04T19:30:44.403Z,47.85
2018-11-04T19:33:12.968Z,45.37
2018-11-04T19:35:41.524Z,47.70
2018-11-04T19:38:10.055Z,48.07
2018-11-04T19:40:38.731Z,44.77
2018-11-04T19:43:07.465Z,45.13
2018-11-04T19:45:36.103Z,48.97
2018-11-04T19:48:04.984Z,53.10
2018-11-04T19:50:34.602Z,47.70
2018-11-04T19:53:03.311Z,50.73
2018-11-04T19:55:31.860Z,49.60
2018-11-04T19:58:00.622Z,51.33
2018-11-04T20:00:29.155Z,49.97
2018-11-04T20:02:57.654Z,49.50
2018-11-04T20:05:26.445Z,49.90
2018-11-04T20:07:55.041Z,51.13
2018-11-04T20:10:23.587Z,51.87
2018-11-04T20:12:57.584Z,55.67
2018-11-04T20:15:26.647Z,51.37
2018-11-04T20:17:55.271Z,57.87
2018-11-04T20:20:25.804Z,59.80
2018-11-04T20:22:54.501Z,56.77
2018-11-04T20:25:28.866Z,56.00
2018-11-04T20:27:57.522Z,53.17
2018-11-04T20:30:26.085Z,51.17
2018-11-04T20:33:00.341Z,55.07
2018-11-04T20:35:29.110Z,54.10
2018-11-04T20:37:57.836Z,54.43
2018-11-04T20:40:31.757Z,49.23
2018-11-04T20:43:00.371Z,52.47
2018-11-04T20:45:28.906Z,52.90
2018-11-04T20:48:03.179Z,55.87
2018-11-04T20:50:37.037Z,51.07
2018-11-04T20:53:05.677Z,47.23
2018-11-04T20:55:40.761Z,53.07
2018-11-04T20:58:09.600Z,47.93
2018-11-04T21:00:38.078Z,48.00
2018-11-04T21:03:06.857Z,51.83
2018-11-04T21:05:35.487Z,47.87
2018-11-04T21:08:04.088Z,52.77
2018-11-04T21:10:32.689Z,49.23
2018-11-04T21:13:01.259Z,51.43
2018-11-04T21:15:29.902Z,52.83
2018-11-04T21:17:58.433Z,41.87
2018-11-04T21:20:27.020Z,48.13
2018-11-04T21:22:55.575Z,47.97
2018-11-04T21:25:24.745Z,48.07
2018-11-04T21:27:53.108Z,49.23
2018-11-04T21:30:21.671Z,47.20
2018-11-04T21:32:50.207Z,47.87
2018-11-04T21:35:18.817Z,45.90
2018-11-04T21:37:47.449Z,51.57
2018-11-04T21:40:16.391Z,49.03
2018-11-04T21:42:46.315Z,44.83
2018-11-04T21:45:15.038Z,49.77
2018-11-04T21:47:43.621Z,48.50
2018-11-04T21:50:12.661Z,48.25
2018-11-04T21:52:41.469Z,44.87
2018-11-04T21:55:12.224Z,51.10
2018-11-04T21:57:41.849Z,53.63
2018-11-04T22:00:12.559Z,50.67
2018-11-04T22:02:41.582Z,53.30
2018-11-04T22:05:10.865Z,48.47
2018-11-04T22:07:39.889Z,53.20
2018-11-04T22:10:10.933Z,53.73
2018-11-04T22:12:39.764Z,49.83
2018-11-04T22:15:08.697Z,53.27
2018-11-04T22:17:37.846Z,47.80
2018-11-04T22:20:07.350Z,56.07
2018-11-04T22:22:35.789Z,53.47
2018-11-04T22:25:04.660Z,57.07
2018-11-04T22:27:34.272Z,55.40
2018-11-04T22:30:03.047Z,56.80
2018-11-04T22:32:31.587Z,58.00
2018-11-04T22:35:00.179Z,57.97
2018-11-04T22:37:28.865Z,62.50
2018-11-04T22:39:57.357Z,63.20
2018-11-04T22:42:26.631Z,57.83
2018-11-04T22:44:54.974Z,61.87
2018-11-04T22:47:23.456Z,59.63
2018-11-04T22:49:52.098Z,61.23
2018-11-04T22:52:20.655Z,59.43
2018-11-04T22:54:50.036Z,55.70
2018-11-04T22:57:18.529Z,62.17
2018-11-04T22:59:47.599Z,62.80
2018-11-04T23:02:16.218Z,64.80
2018-11-04T23:04:50.080Z,63.13
2018-11-04T23:07:18.806Z,65.73
2018-11-04T23:09:47.262Z,65.90
2018-11-04T23:12:15.740Z,62.60
2018-11-04T23:14:44.483Z,66.47
2018-11-04T23:17:12.993Z,59.60
2018-11-04T23:19:41.750Z,63.47
2018-11-04T23:22:10.374Z,66.17
2018-11-04T23:24:38.855Z,66.23
2018-11-04T23:27:07.547Z,67.03
2018-11-04T23:29:36.306Z,64.10
2018-11-04T23:32:05.010Z,66.97
2018-11-04T23:34:33.496Z,66.73
2018-11-04T23:37:01.997Z,63.23
2018-11-04T23:39:30.590Z,66.07
2018-11-04T23:41:59.121Z,62.33
2018-11-04T23:44:27.838Z,68.47
2018-11-04T23:46:56.338Z,64.67
2018-11-04T23:49:24.798Z,67.83
2018-11-04T23:51:53.338Z,66.23
2018-11-04T23:54:22.340Z,68.47
2018-11-04T23:56:51.038Z,64.80
2018-11-04T23:59:19.693Z,61.80
